createdAt,value
2022-12-08T00:00:54.638Z,13.48
2022-12-08T00:03:21.551Z,12.30
2022-12-08T00:06:08.013Z,13.13
2022-12-08T00:08:53.079Z,11.55
2022-12-08T00:11:19.895Z,12.32
2022-12-08T00:13:46.630Z,12.68
2022-12-08T00:16:13.499Z,11.63
2022-12-08T00:18:40.142Z,11.45
2022-12-08T00:21:06.801Z,11.40
2022-12-08T00:23:33.397Z,11.35
2022-12-08T00:26:06.571Z,10.43
2022-12-08T00:28:34.406Z,10.90
2022-12-08T00:31:07.901Z,11.02
2022-12-08T00:33:34.620Z,10.98
2022-12-08T00:36:14.670Z,11.52
2022-12-08T00:38:42.014Z,11.48
2022-12-08T00:41:43.269Z,11.43
2022-12-08T00:44:12.506Z,10.75
2022-12-08T00:46:39.507Z,12.43
2022-12-08T00:49:06.436Z,11.38
2022-12-08T00:51:33.552Z,12.15
2022-12-08T00:54:02.453Z,12.93
2022-12-08T00:56:29.070Z,13.00
2022-12-08T00:58:55.772Z,14.65
2022-12-08T01:01:22.918Z,15.23
2022-12-08T01:03:49.716Z,12.98
2022-12-08T01:06:16.682Z,16.10
2022-12-08T01:08:43.420Z,16.73
2022-12-08T01:11:15.283Z,16.05
2022-12-08T01:13:42.271Z,15.27
2022-12-08T01:16:09.707Z,16.58
2022-12-08T01:18:36.643Z,18.10
2022-12-08T01:21:05.562Z,18.70
2022-12-08T01:23:32.323Z,18.42
2022-12-08T01:26:04.222Z,17.27
2022-12-08T01:28:31.350Z,17.45
2022-12-08T01:30:59.011Z,16.23
2022-12-08T01:33:26.208Z,18.15
2022-12-08T01:35:53.595Z,16.35
2022-12-08T01:38:20.223Z,16.38
2022-12-08T01:40:46.976Z,17.92
2022-12-08T01:43:16.390Z,18.17
2022-12-08T01:45:43.334Z,17.65
2022-12-08T01:48:19.607Z,17.33
2022-12-08T01:50:47.314Z,16.30
2022-12-08T01:53:23.801Z,18.02
2022-12-08T01:55:54.860Z,16.23
2022-12-08T01:58:30.728Z,14.98
2022-12-08T02:00:57.460Z,16.60
2022-12-08T02:03:28.881Z,15.52
2022-12-08T02:05:55.484Z,16.05
2022-12-08T02:08:23.169Z,16.38
2022-12-08T02:10:51.120Z,16.15
2022-12-08T02:13:19.206Z,15.05
2022-12-08T02:16:27.315Z,15.48
2022-12-08T02:19:34.301Z,15.00
2022-12-08T02:22:07.039Z,16.20
2022-12-08T02:24:48.090Z,13.95
2022-12-08T02:27:33.932Z,15.45
2022-12-08T02:30:08.289Z,14.65
2022-12-08T02:33:12.451Z,14.68
2022-12-08T02:35:57.105Z,14.05
2022-12-08T02:38:35.660Z,15.13
2022-12-08T02:41:26.339Z,15.18
2022-12-08T02:44:31.436Z,15.40
2022-12-08T02:47:17.261Z,10.00
2022-12-08T02:49:44.002Z,15.07
2022-12-08T02:52:13.608Z,15.13
2022-12-08T02:55:04.032Z,11.75
2022-12-08T02:57:51.775Z,16.00
2022-12-08T03:00:22.905Z,16.08
2022-12-08T03:03:11.455Z,16.25
2022-12-08T03:06:07.032Z,16.20
2022-12-08T03:08:51.702Z,16.38
2022-12-08T03:11:33.501Z,14.60
2022-12-08T03:14:01.687Z,16.25
2022-12-08T03:16:30.106Z,15.45
2022-12-08T03:19:01.850Z,16.13
2022-12-08T03:21:28.625Z,17.30
2022-12-08T03:23:56.130Z,16.50
2022-12-08T03:26:31.092Z,15.93
2022-12-08T03:28:58.222Z,17.55
2022-12-08T03:31:27.281Z,18.95
2022-12-08T03:33:55.153Z,16.95
2022-12-08T03:36:22.621Z,17.25
2022-12-08T03:38:52.936Z,17.52
2022-12-08T03:41:22.083Z,15.43
2022-12-08T03:43:50.267Z,18.20
2022-12-08T03:46:17.778Z,16.77
2022-12-08T03:48:44.586Z,16.85
2022-12-08T03:51:11.331Z,17.02
2022-12-08T03:53:38.108Z,16.10
2022-12-08T03:56:07.161Z,18.13
2022-12-08T03:58:37.400Z,17.80
2022-12-08T04:01:04.358Z,19.08
2022-12-08T04:03:30.964Z,15.65
2022-12-08T04:05:57.696Z,17.52
2022-12-08T04:08:24.363Z,16.70
2022-12-08T04:10:51.043Z,14.43
2022-12-08T04:13:17.660Z,18.15
2022-12-08T04:15:48.419Z,16.92
2022-12-08T04:18:15.620Z,15.27
2022-12-08T04:20:43.328Z,17.42
2022-12-08T04:23:12.056Z,17.92
2022-12-08T04:25:38.953Z,5.93
2022-12-08T04:28:05.950Z,17.45
2022-12-08T04:30:32.951Z,6.57
2022-12-08T04:32:59.577Z,15.80
2022-12-08T04:35:26.212Z,18.23
2022-12-08T04:37:52.913Z,17.42
2022-12-08T04:40:19.733Z,15.52
2022-12-08T04:42:46.560Z,14.80
2022-12-08T04:45:13.174Z,16.88
2022-12-08T04:47:39.863Z,16.38
2022-12-08T04:50:07.604Z,15.38
2022-12-08T04:52:34.686Z,16.38
2022-12-08T04:55:01.563Z,15.55
2022-12-08T04:57:28.289Z,16.05
2022-12-08T04:59:54.921Z,16.02
2022-12-08T05:02:21.795Z,14.40
2022-12-08T05:04:48.763Z,17.63
2022-12-08T05:07:15.342Z,13.57
2022-12-08T05:09:42.056Z,17.70
2022-12-08T05:12:08.704Z,16.77
2022-12-08T05:14:35.406Z,16.88
2022-12-08T05:17:07.821Z,13.70
2022-12-08T05:19:36.201Z,16.88
2022-12-08T05:22:02.956Z,16.02
2022-12-08T05:24:29.691Z,15.88
2022-12-08T05:26:56.331Z,16.55
2022-12-08T05:29:23.081Z,15.82
2022-12-08T05:31:49.863Z,14.70
2022-12-08T05:34:16.552Z,16.45
2022-12-08T05:36:43.343Z,16.20
2022-12-08T05:39:13.033Z,14.40
2022-12-08T05:41:42.527Z,9.57
2022-12-08T05:44:09.254Z,15.35
2022-12-08T05:46:36.218Z,14.20
2022-12-08T05:49:03.866Z,15.00
2022-12-08T05:51:33.111Z,13.75
2022-12-08T05:54:00.301Z,14.75
2022-12-08T05:56:27.050Z,13.30
2022-12-08T05:58:53.748Z,14.15
2022-12-08T06:01:26.201Z,13.27
2022-12-08T06:03:53.261Z,12.40
2022-12-08T06:06:20.281Z,13.48
2022-12-08T06:08:46.989Z,13.13
2022-12-08T06:11:30.907Z,11.70
2022-12-08T06:13:58.318Z,11.82
2022-12-08T06:16:26.459Z,11.35
2022-12-08T06:18:53.337Z,12.95
2022-12-08T06:21:20.139Z,13.13
2022-12-08T06:23:53.602Z,13.50
2022-12-08T06:26:20.905Z,11.95
2022-12-08T06:28:47.774Z,12.00
2022-12-08T06:31:24.557Z,13.13
2022-12-08T06:33:51.832Z,9.88
2022-12-08T06:36:20.449Z,13.48
2022-12-08T06:38:47.399Z,12.20
2022-12-08T06:41:14.482Z,13.45
2022-12-08T06:43:41.678Z,14.13
2022-12-08T06:46:13.518Z,14.15
2022-12-08T06:48:40.367Z,13.57
2022-12-08T06:51:12.871Z,12.70
2022-12-08T06:53:40.048Z,12.93
2022-12-08T06:56:07.033Z,11.88
2022-12-08T06:58:34.245Z,14.32
2022-12-08T07:01:09.140Z,12.65
2022-12-08T07:03:36.550Z,11.52
2022-12-08T07:06:04.695Z,11.27
2022-12-08T07:08:32.921Z,13.65
2022-12-08T07:10:59.605Z,12.85
2022-12-08T07:13:26.730Z,12.40
2022-12-08T07:15:53.620Z,13.27
2022-12-08T07:18:20.342Z,12.73
2022-12-08T07:20:47.079Z,8.32
2022-12-08T07:23:13.835Z,12.27
2022-12-08T07:25:40.560Z,11.07
2022-12-08T07:28:11.276Z,10.30
2022-12-08T07:30:39.017Z,10.20
2022-12-08T07:33:06.593Z,10.27
2022-12-08T07:35:35.043Z,8.23
2022-12-08T07:38:02.803Z,10.30
2022-12-08T07:40:29.443Z,10.07
2022-12-08T07:42:56.186Z,9.27
2022-12-08T07:45:26.947Z,9.98
2022-12-08T07:47:56.662Z,10.13
2022-12-08T07:50:23.345Z,9.77
2022-12-08T07:52:50.081Z,8.45
2022-12-08T07:55:16.727Z,11.10
2022-12-08T07:57:43.467Z,8.93
2022-12-08T08:00:11.001Z,10.05
2022-12-08T08:02:44.005Z,9.93
2022-12-08T08:05:12.793Z,10.48
2022-12-08T08:07:42.102Z,10.02
2022-12-08T08:10:10.505Z,9.93
2022-12-08T08:12:37.993Z,8.88
2022-12-08T08:15:08.608Z,10.00
2022-12-08T08:17:36.986Z,8.60
2022-12-08T08:20:07.219Z,9.88
2022-12-08T08:22:34.387Z,9.00
2022-12-08T08:25:01.108Z,9.43
2022-12-08T08:27:27.867Z,9.95
2022-12-08T08:29:54.621Z,7.20
2022-12-08T08:32:21.605Z,2.78
2022-12-08T08:34:49.002Z,7.97
2022-12-08T08:37:15.697Z,8.52
2022-12-08T08:39:43.123Z,7.75
2022-12-08T08:42:09.801Z,8.55
2022-12-08T08:44:37.714Z,9.27
2022-12-08T08:47:04.446Z,8.43
2022-12-08T08:49:31.143Z,10.60
2022-12-08T08:51:57.919Z,9.57
2022-12-08T08:54:24.559Z,9.18
2022-12-08T08:56:52.715Z,9.23
2022-12-08T08:59:19.460Z,7.78
2022-12-08T09:01:46.443Z,8.45
2022-12-08T09:04:13.289Z,10.63
2022-12-08T09:06:40.072Z,10.57
2022-12-08T09:09:06.694Z,11.00
2022-12-08T09:11:33.421Z,10.07
2022-12-08T09:14:00.046Z,12.05
2022-12-08T09:16:27.722Z,11.27
2022-12-08T09:18:54.559Z,10.90
2022-12-08T09:21:26.509Z,11.43
2022-12-08T09:23:58.169Z,10.43
2022-12-08T09:26:26.011Z,7.57
2022-12-08T09:28:54.027Z,8.38
2022-12-08T09:31:28.218Z,10.85
2022-12-08T09:33:55.089Z,9.82
2022-12-08T09:36:21.873Z,8.38
2022-12-08T09:38:51.240Z,10.20
2022-12-08T09:41:40.294Z,9.57
2022-12-08T09:44:34.484Z,11.48
2022-12-08T09:47:01.903Z,11.07
2022-12-08T09:49:38.486Z,10.98
2022-12-08T09:52:06.255Z,10.80
2022-12-08T09:54:35.075Z,11.38
2022-12-08T09:57:06.742Z,10.70
2022-12-08T10:02:30.245Z,9.02
2022-12-08T10:04:58.235Z,9.07
2022-12-08T10:07:38.714Z,8.85
2022-12-08T10:10:05.554Z,9.50
2022-12-08T10:12:46.847Z,9.32
2022-12-08T10:15:28.769Z,11.25
2022-12-08T10:17:57.859Z,12.13
2022-12-08T10:20:26.268Z,11.90
2022-12-08T10:23:05.058Z,11.63
2022-12-08T10:25:45.814Z,13.38
2022-12-08T10:28:13.385Z,10.55
2022-12-08T10:30:40.492Z,11.18
2022-12-08T10:33:14.588Z,9.70
2022-12-08T10:35:51.547Z,10.77
2022-12-08T10:38:35.760Z,10.75
2022-12-08T10:41:11.515Z,12.18
2022-12-08T10:43:45.198Z,11.15
2022-12-08T10:46:20.939Z,10.48
2022-12-08T10:48:55.853Z,5.25
2022-12-08T10:51:29.713Z,11.82
2022-12-08T10:53:57.090Z,12.23
2022-12-08T10:56:29.341Z,8.70
2022-12-08T10:59:19.224Z,11.77
2022-12-08T11:01:48.577Z,10.27
2022-12-08T11:04:36.357Z,11.20
2022-12-08T11:07:06.298Z,11.75
2022-12-08T11:09:48.096Z,12.63
2022-12-08T11:12:16.150Z,12.10
2022-12-08T11:14:42.706Z,12.15
2022-12-08T11:17:10.543Z,13.52
2022-12-08T11:19:39.950Z,13.02
2022-12-08T11:22:31.189Z,12.75
2022-12-08T11:25:13.291Z,11.50
2022-12-08T11:27:44.572Z,12.60
2022-12-08T11:30:22.858Z,12.48
2022-12-08T11:32:53.973Z,12.05
2022-12-08T11:35:35.507Z,9.85
2022-12-08T11:38:20.938Z,12.25
2022-12-08T11:40:58.128Z,13.68
2022-12-08T11:43:34.564Z,12.00
2022-12-08T11:46:03.856Z,10.30
2022-12-08T11:48:43.888Z,10.60
2022-12-08T11:51:19.732Z,9.80
2022-12-08T11:54:24.345Z,9.68
2022-12-08T11:57:01.729Z,9.48
2022-12-08T11:59:32.642Z,9.02
2022-12-08T12:02:01.377Z,10.93
2022-12-08T12:04:49.872Z,11.20
2022-12-08T12:07:32.540Z,10.25
2022-12-08T12:10:02.505Z,11.25
2022-12-08T12:12:50.585Z,11.23
2022-12-08T12:15:40.572Z,10.73
2022-12-08T12:18:25.021Z,10.20
2022-12-08T12:21:19.802Z,9.25
2022-12-08T12:23:56.291Z,10.18
2022-12-08T12:26:25.570Z,10.43
2022-12-08T12:29:08.134Z,11.40
2022-12-08T12:31:38.128Z,11.95
2022-12-08T12:34:16.790Z,12.82
2022-12-08T12:36:54.110Z,11.73
2022-12-08T12:39:27.966Z,12.32
2022-12-08T12:42:00.631Z,12.25
2022-12-08T12:44:33.262Z,11.93
2022-12-08T12:47:01.953Z,12.27
2022-12-08T12:49:40.805Z,10.52
2022-12-08T12:52:10.658Z,11.93
2022-12-08T12:54:42.578Z,11.52
2022-12-08T12:57:09.224Z,10.07
2022-12-08T12:59:55.657Z,10.90
2022-12-08T13:02:34.377Z,10.60
2022-12-08T13:05:13.434Z,11.40
2022-12-08T13:07:57.735Z,12.82
2022-12-08T13:10:33.438Z,11.73
2022-12-08T13:13:16.466Z,10.18
2022-12-08T13:15:46.627Z,11.73
2022-12-08T13:18:35.720Z,11.02
2022-12-08T13:21:17.165Z,12.30
2022-12-08T13:23:48.443Z,10.48
2022-12-08T13:26:26.610Z,10.98
2022-12-08T13:29:01.629Z,10.65
2022-12-08T13:31:52.068Z,10.85
2022-12-08T13:34:29.978Z,10.07
2022-12-08T13:37:19.001Z,11.32
2022-12-08T13:39:52.506Z,11.93
2022-12-08T13:42:33.965Z,11.15
2022-12-08T13:48:35.572Z,11.35
2022-12-08T13:55:12.999Z,11.32
2022-12-08T13:59:50.144Z,12.52
2022-12-08T14:02:46.979Z,11.68
2022-12-08T14:05:18.647Z,12.40
2022-12-08T14:07:50.271Z,14.15
2022-12-08T14:10:22.669Z,12.65
2022-12-08T14:12:54.872Z,13.45
2022-12-08T14:15:22.044Z,13.27
2022-12-08T14:17:56.941Z,14.63
2022-12-08T14:20:26.638Z,13.93
2022-12-08T14:22:53.811Z,13.75
2022-12-08T14:25:21.295Z,13.77
2022-12-08T14:27:48.480Z,13.80
2022-12-08T14:30:41.586Z,13.57
2022-12-08T14:33:13.858Z,12.88
2022-12-08T14:35:40.701Z,12.15
2022-12-08T14:38:17.101Z,13.20
2022-12-08T14:41:04.986Z,12.75
2022-12-08T14:43:32.350Z,13.40
2022-12-08T14:46:02.386Z,13.95
2022-12-08T14:48:36.960Z,13.05
2022-12-08T14:51:03.612Z,13.25
2022-12-08T14:53:36.716Z,13.07
2022-12-08T14:56:09.042Z,13.55
2022-12-08T14:58:36.400Z,12.60
2022-12-08T15:01:05.254Z,14.43
2022-12-08T15:03:32.406Z,15.82
2022-12-08T15:06:04.342Z,14.10
2022-12-08T15:08:31.841Z,15.30
2022-12-08T15:11:35.355Z,16.48
2022-12-08T15:14:02.156Z,15.45
2022-12-08T15:16:32.215Z,17.23
2022-12-08T15:19:18.742Z,16.20
2022-12-08T15:21:46.381Z,15.60
2022-12-08T15:24:14.629Z,16.92
2022-12-08T15:26:48.566Z,17.02
2022-12-08T15:29:22.938Z,16.15
2022-12-08T15:31:52.398Z,15.52
2022-12-08T15:34:23.202Z,15.55
2022-12-08T15:36:51.137Z,14.57
2022-12-08T15:39:35.797Z,14.95
2022-12-08T15:42:03.991Z,15.68
2022-12-08T15:44:32.763Z,15.25
2022-12-08T15:47:00.550Z,14.85
2022-12-08T15:49:27.500Z,15.25
2022-12-08T15:52:01.974Z,16.27
2022-12-08T15:54:34.851Z,15.65
2022-12-08T15:59:48.774Z,14.48
2022-12-08T16:02:20.876Z,14.88
2022-12-08T16:07:38.238Z,13.75
2022-12-08T16:10:07.272Z,13.15
2022-12-08T16:16:00.868Z,13.98
2022-12-08T16:18:34.596Z,14.38
2022-12-08T16:21:41.783Z,14.10
2022-12-08T16:23:48.451Z,14.73
2022-12-08T16:26:35.516Z,14.15
2022-12-08T16:29:05.098Z,12.73
2022-12-08T16:31:34.037Z,13.45
2022-12-08T16:34:00.972Z,15.05
2022-12-08T16:36:27.800Z,13.57
2022-12-08T16:38:54.429Z,14.43
2022-12-08T16:41:39.827Z,14.45
2022-12-08T16:44:08.254Z,14.73
2022-12-08T16:46:35.941Z,15.40
2022-12-08T16:49:04.895Z,15.88
2022-12-08T16:51:31.691Z,15.10
2022-12-08T16:53:58.651Z,16.27
2022-12-08T16:56:32.283Z,15.95
2022-12-08T16:59:00.441Z,15.95
2022-12-08T17:01:27.591Z,18.27
2022-12-08T17:04:30.027Z,17.85
2022-12-08T17:06:41.059Z,16.15
2022-12-08T17:09:07.760Z,19.75
2022-12-08T17:11:40.842Z,20.23
2022-12-08T17:14:09.724Z,19.92
2022-12-08T17:16:36.526Z,18.73
2022-12-08T17:19:03.282Z,18.05
2022-12-08T17:21:30.173Z,18.80
2022-12-08T17:23:56.883Z,17.08
2022-12-08T17:26:24.068Z,17.85
2022-12-08T17:29:00.592Z,18.48
2022-12-08T17:31:30.286Z,17.00
2022-12-08T17:34:05.731Z,16.42
2022-12-08T17:36:32.667Z,17.27
2022-12-08T17:39:00.815Z,17.92
2022-12-08T17:41:33.247Z,17.63
2022-12-08T17:43:59.938Z,18.35
2022-12-08T17:46:27.261Z,17.58
2022-12-08T17:48:54.154Z,17.52
2022-12-08T17:51:20.874Z,17.13
2022-12-08T17:53:47.680Z,17.98
2022-12-08T17:56:19.774Z,17.48
2022-12-08T17:58:51.317Z,15.98
2022-12-08T18:01:21.522Z,17.20
2022-12-08T18:03:48.387Z,15.95
2022-12-08T18:06:16.233Z,16.92
2022-12-08T18:08:43.005Z,17.38
2022-12-08T18:11:16.306Z,18.48
2022-12-08T18:13:42.937Z,19.35
2022-12-08T18:16:09.962Z,19.65
2022-12-08T18:18:36.575Z,20.45
2022-12-08T18:21:03.292Z,19.85
2022-12-08T18:23:30.130Z,20.77
2022-12-08T18:25:56.786Z,22.33
2022-12-08T18:28:24.076Z,21.27
2022-12-08T18:30:50.919Z,20.88
2022-12-08T18:33:17.666Z,23.45
2022-12-08T18:35:44.394Z,23.05
2022-12-08T18:38:11.587Z,21.27
2022-12-08T18:40:39.095Z,23.75
2022-12-08T18:43:06.652Z,23.70
2022-12-08T18:45:34.099Z,22.52
2022-12-08T18:48:00.732Z,20.15
2022-12-08T18:50:27.537Z,21.15
2022-12-08T18:52:54.637Z,20.65
2022-12-08T18:55:21.367Z,19.38
2022-12-08T18:57:48.897Z,19.80
2022-12-08T19:00:17.462Z,17.63
2022-12-08T19:02:45.260Z,20.05
2022-12-08T19:05:13.615Z,16.75
2022-12-08T19:07:42.408Z,18.85
2022-12-08T19:10:10.034Z,18.85
2022-12-08T19:12:36.957Z,21.45
2022-12-08T19:15:05.627Z,20.70
2022-12-08T19:17:32.628Z,22.40
2022-12-08T19:19:59.348Z,21.13
2022-12-08T19:22:26.354Z,19.17
2022-12-08T19:24:53.266Z,20.10
2022-12-08T19:27:19.960Z,18.38
2022-12-08T19:29:47.916Z,19.58
2022-12-08T19:32:14.642Z,17.65
2022-12-08T19:34:41.379Z,18.23
2022-12-08T19:37:08.887Z,20.50
2022-12-08T19:39:54.806Z,19.00
2022-12-08T19:42:40.126Z,20.38
2022-12-08T19:45:13.844Z,22.35
2022-12-08T19:47:43.883Z,21.55
2022-12-08T19:50:32.229Z,21.52
2022-12-08T19:53:00.720Z,20.13
2022-12-08T19:55:27.578Z,20.95
2022-12-08T19:57:55.434Z,20.83
2022-12-08T20:00:22.614Z,20.58
2022-12-08T20:02:49.330Z,21.65
2022-12-08T20:05:16.134Z,21.90
2022-12-08T20:07:42.969Z,21.38
2022-12-08T20:10:17.748Z,21.67
2022-12-08T20:12:44.634Z,19.67
2022-12-08T20:15:11.823Z,19.83
2022-12-08T20:17:38.899Z,18.73
2022-12-08T20:20:07.602Z,20.58
2022-12-08T20:22:35.119Z,23.85
2022-12-08T20:25:02.309Z,25.85
2022-12-08T20:27:29.365Z,23.63
2022-12-08T20:29:56.056Z,22.88
2022-12-08T20:32:22.850Z,23.52
2022-12-08T20:34:52.467Z,22.88
2022-12-08T20:37:19.690Z,24.23
2022-12-08T20:39:46.632Z,25.00
2022-12-08T20:42:13.827Z,25.30
2022-12-08T20:44:45.179Z,26.05
2022-12-08T20:47:13.541Z,25.13
2022-12-08T20:49:40.429Z,25.05
2022-12-08T20:52:07.386Z,25.83
2022-12-08T20:54:34.873Z,25.77
2022-12-08T20:57:01.707Z,25.08
2022-12-08T20:59:28.600Z,23.23
2022-12-08T21:01:55.438Z,24.00
2022-12-08T21:04:23.241Z,20.67
2022-12-08T21:06:50.613Z,22.60
2022-12-08T21:09:17.719Z,22.92
2022-12-08T21:11:44.850Z,24.35
2022-12-08T21:14:11.678Z,21.13
2022-12-08T21:16:38.577Z,22.35
2022-12-08T21:19:06.258Z,21.90
2022-12-08T21:21:34.157Z,22.02
2022-12-08T21:24:01.165Z,20.88
2022-12-08T21:26:28.736Z,21.25
2022-12-08T21:28:58.603Z,20.92
2022-12-08T21:31:29.352Z,21.60
2022-12-08T21:33:56.377Z,21.05
2022-12-08T21:36:23.379Z,21.77
2022-12-08T21:38:50.972Z,19.98
2022-12-08T21:41:38.818Z,20.95
2022-12-08T21:44:06.641Z,19.80
2022-12-08T21:46:33.596Z,20.48
2022-12-08T21:49:00.610Z,20.63
2022-12-08T21:51:32.833Z,23.50
2022-12-08T21:53:59.678Z,27.65
2022-12-08T21:56:27.894Z,25.98
2022-12-08T21:58:54.697Z,26.13
2022-12-08T22:01:21.554Z,25.33
2022-12-08T22:03:48.506Z,27.05
2022-12-08T22:06:16.727Z,24.42
2022-12-08T22:08:43.884Z,24.80
2022-12-08T22:11:11.688Z,23.92
2022-12-08T22:13:40.142Z,23.75
2022-12-08T22:16:09.889Z,22.90
2022-12-08T22:18:37.206Z,24.08
2022-12-08T22:21:16.859Z,23.95
2022-12-08T22:23:44.475Z,26.30
2022-12-08T22:26:12.165Z,24.65
2022-12-08T22:28:41.048Z,24.52
2022-12-08T22:31:12.714Z,22.63
2022-12-08T22:33:40.444Z,22.48
2022-12-08T22:36:11.037Z,23.08
2022-12-08T22:38:38.011Z,21.98
2022-12-08T22:41:08.673Z,20.80
2022-12-08T22:43:38.184Z,21.15
2022-12-08T22:46:14.004Z,23.65
2022-12-08T22:48:41.603Z,22.55
2022-12-08T22:51:08.898Z,23.58
2022-12-08T22:53:35.751Z,22.98
2022-12-08T22:56:07.691Z,22.90
2022-12-08T22:58:35.332Z,20.92
2022-12-08T23:01:02.534Z,22.55
2022-12-08T23:03:29.551Z,23.08
2022-12-08T23:05:56.667Z,21.45
2022-12-08T23:08:24.249Z,22.00
2022-12-08T23:10:53.254Z,22.85
2022-12-08T23:13:20.710Z,21.85
2022-12-08T23:15:47.767Z,20.90
2022-12-08T23:18:17.506Z,22.52
2022-12-08T23:20:44.193Z,22.30
2022-12-08T23:23:10.937Z,21.30
2022-12-08T23:25:41.409Z,22.42
2022-12-08T23:28:08.364Z,22.60
2022-12-08T23:30:35.423Z,22.65
2022-12-08T23:33:02.479Z,22.83
2022-12-08T23:35:29.637Z,21.80
2022-12-08T23:37:56.343Z,21.45
2022-12-08T23:40:23.196Z,22.20
2022-12-08T23:42:50.685Z,20.25
2022-12-08T23:45:17.631Z,23.02
2022-12-08T23:47:44.297Z,20.85
2022-12-08T23:50:11.812Z,20.50
2022-12-08T23:52:39.922Z,23.02
2022-12-08T23:55:07.832Z,22.48
2022-12-08T23:57:38.203Z,21.45
